Data for 05/02/2005

Time Sea-Level Adjusted Pressure Absolute Pressure Temperature Relative Humidity Dew Point   
(mb) (inHg) (mb) (inHg) (C) (F) (%) (C) (F)
00:05 1024 30.24 853 25.19 0.1 32.2 56 -7.8 18
00:10 1024 30.24 853 25.19 0 32.1 56 -7.8 18
00:15 1024 30.24 853 25.19 -0.1 31.9 56 -7.9 17.8
00:20 1024 30.24 853 25.19 -0.1 31.9 56 -7.9 17.8
00:25 1024 30.24 853 25.19 -0.2 31.7 56 -7.9 17.7
00:30 1024 30.24 853 25.19 -0.3 31.5 56 -8 17.6
00:35 1024 30.24 853 25.19 -0.3 31.4 57 -7.9 17.8
00:40 1024 30.24 853 25.19 -0.3 31.4 56 -8 17.7
00:45 1024 30.24 853 25.19 -0.3 31.4 56 -8 17.6
00:50 1024 30.24 853 25.19 -0.4 31.3 57 -7.9 17.8
00:55 1024 30.24 853 25.19 -0.5 31.1 57 -7.9 17.7
01:00 1024 30.24 853 25.19 -0.6 31 57 -8 17.6
01:05 1024 30.24 853 25.19 -0.5 31.1 57 -7.9 17.8
01:10 1024 30.24 853 25.19 -0.6 30.9 58 -8 17.7
01:15 1024 30.24 853 25.19 -0.7 30.7 58 -8 17.6
01:20 1024 30.24 853 25.19 -0.7 30.7 58 -8 17.6
01:25 1024 30.24 853 25.19 -0.8 30.6 58 -8 17.7
01:30 1024 30.24 853 25.19 -0.8 30.5 59 -7.9 17.8
01:35 1024 30.24 853 25.19 -0.9 30.3 59 -7.9 17.8
01:40 1024 30.24 853 25.19 -0.9 30.3 60 -7.9 17.8
01:45 1024 30.24 853 25.19 -1 30.2 59 -8 17.5
01:50 1024 30.24 853 25.19 -1.1 30.1 60 -8 17.6
01:55 1024 30.24 853 25.19 -1.1 30 60 -8 17.6
02:00 1024 30.24 853 25.19 -1.1 30.1 60 -8 17.7
02:05 1024 30.24 853 25.19 -1.1 30 59 -8.1 17.5
02:10 1024 30.24 853 25.19 -1.2 29.9 60 -8 17.6
02:15 1024 30.24 853 25.19 -1.2 29.8 60 -8 17.6
02:20 1024 30.24 853 25.19 -1.3 29.7 61 -7.9 17.8
02:25 1024 30.24 853 25.19 -1.4 29.4 61 -7.9 17.7
02:30 1024 30.24 853 25.19 -1.3 29.6 61 -7.9 17.8
02:35 1024 30.24 853 25.19 -1.4 29.4 61 -8 17.7
02:40 1024 30.24 853 25.19 -1.5 29.3 62 -7.9 17.8
02:45 1024 30.24 853 25.19 -1.6 29.1 62 -7.9 17.8
02:50 1024 30.24 853 25.19 -1.6 29.1 62 -7.9 17.7
02:55 1024 30.24 853 25.19 -1.7 29 63 -7.9 17.9
03:00 1024 30.24 853 25.19 -1.7 28.9 63 -7.8 17.9
03:05 1024 30.24 853 25.19 -1.8 28.7 63 -7.9 17.8
03:10 1024 30.24 853 25.19 -1.9 28.5 64 -7.8 17.9
03:15 1024 30.24 853 25.19 -2 28.4 65 -7.8 18
03:20 1024 30.24 853 25.19 -2.1 28.2 65 -7.8 17.9
03:25 1024 30.24 853 25.19 -2.1 28.2 65 -7.7 18.1
03:30 1024 30.24 853 25.19 -2.3 27.9 66 -7.8 18
03:35 1024 30.24 853 25.19 -2.3 27.8 66 -7.8 18
03:40 1024 30.24 853 25.19 -2.3 27.9 66 -7.8 17.9
03:45 1024 30.24 853 25.19 -2.3 27.9 66 -7.9 17.8
03:50 1024 30.24 853 25.19 -2.3 27.9 66 -7.8 17.9
03:55 1024 30.24 853 25.19 -2.3 27.9 66 -7.8 18
04:00 1024 30.24 853 25.19 -2.4 27.7 66 -7.8 18
04:05 1024 30.24 853 25.19 -2.5 27.6 67 -7.8 17.9
04:10 1024 30.24 853 25.19 -2.5 27.5 67 -7.8 17.9
04:15 1024 30.24 853 25.19 -2.7 27.2 68 -7.8 18
04:20 1024 30.24 853 25.19 -2.8 26.9 68 -7.9 17.9
04:25 1024 30.24 853 25.19 -2.8 27 68 -7.9 17.7
04:30 1024 30.24 853 25.19 -2.7 27.1 68 -7.9 17.8
04:35 1024 30.24 853 25.19 -2.7 27.1 67 -7.9 17.7
04:40 1024 30.24 853 25.19 -2.7 27.2 68 -7.8 17.9
04:45 1024 30.24 853 25.19 -2.8 27 68 -7.9 17.8
04:50 1024 30.24 853 25.19 -2.8 26.9 68 -7.9 17.9
04:55 1024 30.24 853 25.19 -2.9 26.8 68 -7.9 17.8
05:00 1024 30.24 853 25.19 -2.9 26.7 69 -7.9 17.8
05:05 1024 30.24 853 25.19 -3 26.6 69 -8 17.7
05:10 1023 30.21 853 25.19 -3 26.6 69 -8 17.7
05:15 1023 30.21 853 25.19 -3 26.6 68 -8 17.6
05:20 1023 30.21 853 25.19 -3 26.7 69 -7.9 17.8
05:25 1023 30.21 853 25.19 -3 26.6 69 -8 17.7
05:30 1023 30.21 853 25.19 -3.1 26.5 69 -8 17.7
05:35 1023 30.21 853 25.19 -3.2 26.3 69 -8 17.6
05:40 1023 30.21 853 25.19 -3.2 26.3 69 -8.1 17.5
05:45 1023 30.21 853 25.19 -3.1 26.4 69 -8 17.5
05:50 1023 30.21 853 25.19 -3.1 26.4 69 -8.1 17.5
05:55 1023 30.21 852 25.16 -3.1 26.5 69 -8 17.6
06:00 1023 30.21 852 25.16 -3.2 26.3 69 -8.1 17.5
06:05 1023 30.21 852 25.16 -3.2 26.3 69 -8 17.5
06:10 1023 30.21 853 25.19 -3.2 26.2 70 -8 17.6
06:15 1023 30.21 853 25.19 -3.4 25.9 70 -8 17.5
06:20 1023 30.21 853 25.19 -3.4 25.9 71 -8 17.6
06:25 1023 30.21 853 25.19 -3.5 25.7 71 -8 17.5
06:30 1023 30.21 853 25.19 -3.4 25.9 70 -8.1 17.5
06:35 1023 30.21 853 25.19 -3.2 26.2 69 -8 17.6
06:40 1023 30.21 853 25.19 -3 26.6 69 -8 17.7
06:45 1023 30.21 853 25.19 -3.1 26.5 68 -8.1 17.5
06:50 1023 30.21 853 25.19 -2.9 26.7 68 -8 17.6
06:55 1024 30.24 853 25.19 -2.7 27.2 67 -8 17.5
07:00 1024 30.24 853 25.19 -2.4 27.6 66 -8 17.5
07:05 1024 30.24 853 25.19 -2.3 27.9 65 -8 17.7
07:10 1024 30.24 853 25.19 -2 28.3 63 -8.1 17.4
07:15 1024 30.24 853 25.19 -1.8 28.7 63 -8 17.7
07:20 1024 30.24 853 25.19 -1.6 29.1 63 -7.7 18.1
07:25 1024 30.24 853 25.19 -1.2 29.8 62 -7.6 18.2
07:30 1024 30.24 853 25.19 -0.6 30.9 59 -7.7 18.2
07:35 1024 30.24 853 25.19 -0.5 31.2 59 -7.6 18.3
07:40 1024 30.24 853 25.19 -0.5 31.1 58 -7.9 17.8
07:45 1024 30.24 853 25.19 -0.4 31.3 58 -7.8 18
07:50 1024 30.24 853 25.19 -0.4 31.2 57 -7.8 17.9
07:55 1024 30.24 853 25.19 -0.1 31.9 55 -8 17.7
08:00 1024 30.24 853 25.19 0.2 32.3 55 -7.8 18
08:05 1024 30.24 853 25.19 0.1 32.3 55 -7.8 18
08:10 1024 30.24 853 25.19 0.3 32.5 55 -7.6 18.3
08:15 1024 30.24 853 25.19 0 32 56 -7.8 17.9
08:20 1024 30.24 853 25.19 0.4 32.7 54 -7.9 17.8
08:25 1024 30.24 853 25.19 0.9 33.6 53 -7.6 18.4
08:30 1024 30.24 853 25.19 1 33.8 53 -7.5 18.6
08:35 1024 30.24 853 25.19 1 33.8 53 -7.4 18.7
08:40 1024 30.24 853 25.19 1.2 34.1 53 -7.5 18.6
08:45 1024 30.24 853 25.19 1.4 34.5 51 -7.6 18.3
08:50 1024 30.24 853 25.19 2.3 36.1 49 -7.5 18.6
08:55 1024 30.24 853 25.19 2.9 37.1 47 -7.2 19
09:00 1024 30.24 853 25.19 2.4 36.4 49 -7.1 19.2
09:05 1023 30.21 853 25.19 1.9 35.4 50 -7.4 18.6
09:10 1023 30.21 853 25.19 2.4 36.2 49 -7.4 18.8
09:15 1023 30.21 853 25.19 3.3 38 45 -7.4 18.6
09:20 1023 30.21 853 25.19 3.8 38.9 44 -7.4 18.7
09:25 1023 30.21 853 25.19 3.4 38.1 45 -7.3 18.8
09:30 1023 30.21 853 25.19 3.1 37.6 47 -7.1 19.2
09:35 1023 30.21 852 25.16 3.3 38 47 -6.9 19.5
09:40 1023 30.21 852 25.16 3.2 37.8 46 -7.2 19
09:45 1023 30.21 852 25.16 3.6 38.5 46 -7 19.4
09:50 1023 30.21 852 25.16 3.6 38.5 44 -7.4 18.7
09:55 1023 30.21 852 25.16 4.5 40.2 43 -7.1 19.3
10:00 1023 30.21 852 25.16 4.9 40.9 42 -6.8 19.7
10:05 1023 30.21 852 25.16 4.7 40.4 43 -6.8 19.8
10:10 1023 30.21 852 25.16 5.1 41.2 41 -6.9 19.5
10:15 1023 30.21 852 25.16 5.6 42 42 -6.2 20.8
10:20 1023 30.21 852 25.16 5.2 41.3 44 -6.2 20.9
10:25 1023 30.21 852 25.16 4.3 39.8 46 -6.3 20.6
10:30 1023 30.21 852 25.16 5.2 41.3 42 -6.6 20.1
10:35 1023 30.21 852 25.16 6.2 43.1 40 -6.5 20.4
10:40 1023 30.21 852 25.16 6.1 43 41 -6 21.1
10:45 1023 30.21 852 25.16 6.3 43.3 40 -6.3 20.7
10:50 1023 30.21 852 25.16 6.6 43.9 39 -6.3 20.7
10:55 1023 30.21 852 25.16 6.8 44.2 40 -5.8 21.6
11:00 1023 30.21 852 25.16 7.6 45.6 36 -6.4 20.5
11:05 1023 30.21 852 25.16 7.6 45.7 39 -5.6 21.9
11:10 1023 30.21 852 25.16 7.2 45 38 -6.1 21.1
11:15 1023 30.21 852 25.16 6.8 44.2 41 -5.6 21.8
11:20 1023 30.21 852 25.16 5.5 42 44 -5.8 21.6
11:25 1023 30.21 852 25.16 6.2 43.1 41 -6.2 20.8
11:30 1023 30.21 852 25.16 7.8 46.1 36 -6.2 20.9
11:35 1022 30.18 852 25.16 7.9 46.1 38 -5.5 22.1
11:40 1022 30.18 852 25.16 7.5 45.5 40 -5.4 22.3
11:45 1022 30.18 852 25.16 7.6 45.6 37 -6.1 21
11:50 1022 30.18 852 25.16 9.2 48.6 33 -6.2 20.8
11:55 1022 30.18 852 25.16 9.2 48.5 35 -5.3 22.4
12:00 1022 30.18 852 25.16 8.8 47.8 37 -5.2 22.7
12:05 1022 30.18 851 25.13 8.4 47.2 34 -6.4 20.4
12:10 1022 30.18 851 25.13 8.8 47.9 35 -5.7 21.8
12:15 1022 30.18 851 25.13 8.8 47.8 35 -5.6 21.9
12:20 1022 30.18 851 25.13 7.6 45.7 39 -5.5 22.1
12:25 1022 30.18 851 25.13 8.2 46.8 36 -6 21.3
12:30 1022 30.18 851 25.13 9.3 48.8 35 -5.4 22.2
12:35 1022 30.18 851 25.13 9.4 48.9 34 -5.5 22.1
12:40 1022 30.18 851 25.13 8.9 48.1 35 -5.7 21.7
12:45 1022 30.18 851 25.13 8.4 47.2 36 -5.7 21.7
12:50 1022 30.18 851 25.13 9 48.2 37 -5 23
12:55 1022 30.18 851 25.13 8.5 47.2 36 -5.7 21.7
13:00 1022 30.18 851 25.13 8.8 47.8 35 -5.7 21.7
13:05 1022 30.18 851 25.13 9.1 48.4 35 -5.4 22.3
13:10 1022 30.18 851 25.13 8.7 47.6 35 -5.8 21.6
13:15 1022 30.18 851 25.13 9.3 48.8 33 -6.1 21
13:20 1021 30.15 851 25.13 9.8 49.7 32 -6.2 20.9
13:25 1021 30.15 851 25.13 10.6 51.1 30 -6.1 21.1
13:30 1021 30.15 851 25.13 10.6 51 30 -6.2 20.9
13:35 1021 30.15 851 25.13 11.2 52.1 29 -6 21.1
13:40 1021 30.15 850 25.1 12 53.5 28 -5.8 21.6
13:45 1021 30.15 850 25.1 12.2 54 27 -5.9 21.3
13:50 1021 30.15 850 25.1 12.2 53.9 30 -5 23
13:55 1021 30.15 850 25.1 12.2 53.9 29 -5.4 22.3
14:00 1021 30.15 850 25.1 12.4 54.3 28 -5.7 21.8
14:05 1021 30.15 850 25.1 12.3 54.2 27 -6.1 20.9
14:10 1021 30.15 850 25.1 12.5 54.6 27 -5.9 21.3
14:15 1021 30.15 850 25.1 12.4 54.2 29 -5.3 22.5
14:20 1021 30.15 850 25.1 13 55.3 26 -6.1 21
14:25 1021 30.15 850 25.1 13.2 55.8 24 -6.6 20.1
14:30 1021 30.15 850 25.1 13 55.3 25 -6.8 19.7
14:35 1021 30.15 850 25.1 12.1 53.8 26 -6.7 19.9
14:40 1021 30.15 850 25.1 11.5 52.7 26 -7.4 18.6
14:45 1021 30.15 850 25.1 11.6 53 26 -7 19.5
14:50 1021 30.15 850 25.1 12.1 53.8 25 -7.1 19.3
14:55 1021 30.15 850 25.1 11.8 53.2 27 -6.7 19.9
15:00 1021 30.15 850 25.1 11.5 52.8 24 -8.1 17.5
15:05 1021 30.15 850 25.1 12.5 54.5 24 -7.4 18.7
15:10 1021 30.15 850 25.1 12.8 55.1 24 -7.1 19.3
15:15 1021 30.15 850 25.1 12.7 54.9 25 -6.9 19.6
15:20 1021 30.15 850 25.1 13.5 56.3 23 -7.4 18.8
15:25 1021 30.15 850 25.1 13.6 56.4 22 -7.5 18.5
15:30 1021 30.15 850 25.1 13.8 56.9 23 -7.2 19.1
15:35 1020 30.12 850 25.1 14 57.2 23 -6.7 20
15:40 1020 30.12 850 25.1 14.1 57.4 23 -6.5 20.4
15:45 1020 30.12 850 25.1 14.2 57.6 23 -6.4 20.5
15:50 1020 30.12 849 25.07 13.8 56.8 24 -6.6 20.2
15:55 1020 30.12 849 25.07 14.2 57.6 23 -6.3 20.7
16:00 1020 30.12 849 25.07 14.4 57.9 24 -6.1 21
16:05 1020 30.12 849 25.07 14.4 58 23 -6.4 20.5
16:10 1020 30.12 849 25.07 14.3 57.7 24 -5.9 21.3
16:15 1020 30.12 849 25.07 14.3 57.8 24 -6.1 21.1
16:20 1020 30.12 849 25.07 14 57.2 24 -6.4 20.4
16:25 1020 30.12 849 25.07 14.7 58.4 23 -6.3 20.6
16:30 1020 30.12 849 25.07 14.8 58.6 22 -6.4 20.5
16:35 1020 30.12 849 25.07 14.6 58.4 23 -6.5 20.3
16:40 1020 30.12 849 25.07 14.5 58 23 -6.4 20.4
16:45 1020 30.12 849 25.07 15 59 23 -6.2 20.9
16:50 1020 30.12 849 25.07 14.8 58.6 23 -6.2 20.8
16:55 1020 30.12 849 25.07 14.3 57.8 24 -6.1 21
17:00 1020 30.12 849 25.07 13.9 57.1 23 -6.7 20
17:05 1019 30.09 849 25.07 13.4 56.1 24 -7 19.5
17:10 1019 30.09 849 25.07 14.3 57.7 23 -6.5 20.2
17:15 1019 30.09 849 25.07 14.8 58.7 22 -6.6 20.2
17:20 1019 30.09 849 25.07 14.7 58.4 21 -7.2 19.1
17:25 1019 30.09 849 25.07 13.9 57.1 22 -7.2 19
17:30 1019 30.09 849 25.07 14.2 57.6 22 -7 19.4
17:35 1019 30.09 849 25.07 14.3 57.8 22 -7.2 19.1
17:40 1019 30.09 848 25.04 13.8 56.8 22 -7.5 18.5
17:45 1019 30.09 848 25.04 13.9 57 23 -7 19.3
17:50 1019 30.09 848 25.04 14.1 57.3 22 -7 19.3
17:55 1019 30.09 848 25.04 13.5 56.2 23 -7.1 19.3
18:00 1019 30.09 848 25.04 13.3 56 23 -7.3 18.8
18:05 1019 30.09 848 25.04 13.9 57 23 -6.9 19.5
18:10 1019 30.09 848 25.04 14.1 57.4 23 -6.8 19.8
18:15 1019 30.09 848 25.04 13.2 55.8 24 -7 19.3
18:20 1019 30.09 848 25.04 12.7 54.8 24 -7.3 18.9
18:25 1019 30.09 848 25.04 12.8 55 24 -7.1 19.1
18:30 1019 30.09 848 25.04 12.9 55.3 23 -7.4 18.6
18:35 1019 30.09 848 25.04 13 55.4 24 -7.3 18.9
18:40 1019 30.09 848 25.04 12.4 54.3 24 -7.6 18.4
18:45 1019 30.09 848 25.04 12.4 54.3 25 -7.2 19.1
18:50 1019 30.09 848 25.04 12.1 53.8 25 -7.1 19.2
18:55 1019 30.09 848 25.04 11.8 53.2 30 -5.2 22.7
19:00 1019 30.09 848 25.04 11.7 53 30 -5.4 22.3
19:05 1019 30.09 848 25.04 11.7 53.1 30 -5.1 22.9
19:10 1019 30.09 848 25.04 11.6 52.9 30 -5.1 22.8
19:15 1019 30.09 848 25.04 11.4 52.5 31 -5.3 22.5
19:20 1019 30.09 848 25.04 11.2 52.1 31 -5.2 22.7
19:25 1019 30.09 848 25.04 11.1 51.9 32 -5 23
19:30 1019 30.09 848 25.04 10.9 51.6 32 -5 23
19:35 1019 30.09 848 25.04 10.6 51 33 -5 23
19:40 1019 30.09 848 25.04 10.4 50.8 33 -5 23
19:45 1019 30.09 848 25.04 10.4 50.7 33 -5.1 22.9
19:50 1019 30.09 848 25.04 10.2 50.3 33 -5.3 22.5
19:55 1019 30.09 848 25.04 10.1 50.2 34 -5 22.9
20:00 1019 30.09 848 25.04 10 50 34 -5.1 22.9
20:05 1019 30.09 848 25.04 9.7 49.4 35 -5 22.9
20:10 1019 30.09 848 25.04 9.3 48.7 36 -4.9 23.1
20:15 1019 30.09 848 25.04 8.8 47.9 38 -4.9 23.2
20:20 1019 30.09 848 25.04 8.5 47.2 38 -4.9 23.1
20:25 1019 30.09 848 25.04 8.2 46.8 38 -5.3 22.5
20:30 1019 30.09 848 25.04 8 46.4 38 -5.5 22
20:35 1019 30.09 848 25.04 7.9 46.1 38 -5.5 22.1
20:40 1019 30.09 848 25.04 7.6 45.8 39 -5.5 22.1
20:45 1019 30.09 848 25.04 7.6 45.6 39 -5.6 21.9
20:50 1019 30.09 848 25.04 7.5 45.4 39 -5.7 21.8
20:55 1019 30.09 848 25.04 7.4 45.3 39 -5.6 21.9
21:00 1019 30.09 849 25.07 7.3 45.1 40 -5.6 21.9
21:05 1019 30.09 848 25.04 7.1 44.7 39 -5.8 21.5
21:10 1019 30.09 848 25.04 7 44.6 40 -5.6 21.9
21:15 1019 30.09 849 25.07 6.9 44.4 40 -5.8 21.6
21:20 1019 30.09 849 25.07 6.8 44.3 40 -5.8 21.6
21:25 1019 30.09 849 25.07 6.7 44.1 41 -5.6 21.9
21:30 1020 30.12 849 25.07 6.5 43.6 41 -5.8 21.6
21:35 1020 30.12 849 25.07 6.4 43.6 42 -5.6 21.9
21:40 1020 30.12 849 25.07 6.3 43.3 42 -5.6 21.9
21:45 1020 30.12 849 25.07 6.2 43.1 42 -5.7 21.8
21:50 1020 30.12 849 25.07 6.2 43.2 42 -5.8 21.6
21:55 1020 30.12 849 25.07 6.1 43.1 43 -5.6 21.8
22:00 1020 30.12 849 25.07 6.1 43 42 -5.7 21.7
22:05 1020 30.12 849 25.07 6.1 42.9 43 -5.7 21.8
22:10 1020 30.12 849 25.07 6 42.8 43 -5.6 21.9
22:15 1020 30.12 849 25.07 5.9 42.5 44 -5.6 22
22:20 1020 30.12 849 25.07 5.7 42.3 45 -5.3 22.4
22:25 1020 30.12 849 25.07 5.6 42 45 -5.5 22
22:30 1020 30.12 849 25.07 5.5 41.9 45 -5.4 22.3
22:35 1020 30.12 849 25.07 5.5 41.9 45 -5.5 22.1
22:40 1020 30.12 849 25.07 5.5 41.8 45 -5.4 22.2
22:45 1020 30.12 849 25.07 5.4 41.7 45 -5.5 22.1
22:50 1020 30.12 849 25.07 5.4 41.7 46 -5.4 22.2
22:55 1020 30.12 849 25.07 5.3 41.5 46 -5.5 22.2
23:00 1020 30.12 849 25.07 5.2 41.4 46 -5.4 22.2
23:05 1020 30.12 849 25.07 5.2 41.3 46 -5.5 22.1
23:10 1020 30.12 849 25.07 5 41 47 -5.5 22.1
23:15 1020 30.12 849 25.07 4.9 40.9 47 -5.5 22
23:20 1020 30.12 849 25.07 4.8 40.7 47 -5.6 21.9
23:25 1020 30.12 849 25.07 4.9 40.7 47 -5.6 21.8
23:30 1020 30.12 849 25.07 4.8 40.6 47 -5.6 21.9
23:35 1020 30.12 849 25.07 4.7 40.4 47 -5.6 21.9
23:40 1020 30.12 849 25.07 4.6 40.3 47 -5.8 21.6
23:45 1020 30.12 849 25.07 4.6 40.3 47 -5.7 21.7
23:50 1020 30.12 849 25.07 4.6 40.3 47 -5.8 21.5
23:55 1020 30.12 849 25.07 4.6 40.2 47 -5.8 21.5
24:00 1020 30.12 849 25.07 4.6 40.2 47 -5.8 21.5